sensor_id;sensor_type;location;lat;lon;timestamp;P1;durP1;ratioP1;P2;durP2;ratioP2
73567;SDS011;61847;54.994;73.310;2022-10-31T00:01:34;16.63;;;7.40;;
73567;SDS011;61847;54.994;73.310;2022-10-31T00:04:03;13.13;;;7.13;;
73567;SDS011;61847;54.994;73.310;2022-10-31T00:06:30;19.20;;;8.03;;
73567;SDS011;61847;54.994;73.310;2022-10-31T00:09:00;18.90;;;8.33;;
73567;SDS011;61847;54.994;73.310;2022-10-31T00:11:38;28.33;;;7.90;;
73567;SDS011;61847;54.994;73.310;2022-10-31T00:14:04;20.90;;;7.87;;
73567;SDS011;61847;54.994;73.310;2022-10-31T00:16:31;21.87;;;7.50;;
73567;SDS011;61847;54.994;73.310;2022-10-31T00:18:59;18.93;;;7.87;;
73567;SDS011;61847;54.994;73.310;2022-10-31T00:21:31;21.33;;;8.90;;
73567;SDS011;61847;54.994;73.310;2022-10-31T00:23:58;18.37;;;8.90;;
73567;SDS011;61847;54.994;73.310;2022-10-31T00:26:27;26.27;;;10.20;;
73567;SDS011;61847;54.994;73.310;2022-10-31T00:28:53;20.03;;;9.70;;
73567;SDS011;61847;54.994;73.310;2022-10-31T00:31:21;21.30;;;8.63;;
73567;SDS011;61847;54.994;73.310;2022-10-31T00:33:48;25.07;;;9.30;;
73567;SDS011;61847;54.994;73.310;2022-10-31T00:36:21;17.95;;;8.02;;
73567;SDS011;61847;54.994;73.310;2022-10-31T00:38:47;19.23;;;8.77;;
73567;SDS011;61847;54.994;73.310;2022-10-31T00:41:19;21.57;;;9.37;;
73567;SDS011;61847;54.994;73.310;2022-10-31T00:43:50;30.13;;;8.93;;
73567;SDS011;61847;54.994;73.310;2022-10-31T00:46:16;20.87;;;9.47;;
73567;SDS011;61847;54.994;73.310;2022-10-31T00:48:48;19.93;;;9.10;;
73567;SDS011;61847;54.994;73.310;2022-10-31T00:51:14;28.03;;;9.20;;
73567;SDS011;61847;54.994;73.310;2022-10-31T00:53:40;19.70;;;8.90;;
73567;SDS011;61847;54.994;73.310;2022-10-31T00:56:07;21.43;;;9.20;;
73567;SDS011;61847;54.994;73.310;2022-10-31T00:58:43;24.17;;;9.63;;
73567;SDS011;61847;54.994;73.310;2022-10-31T01:01:09;22.17;;;9.50;;
73567;SDS011;61847;54.994;73.310;2022-10-31T01:03:41;30.37;;;10.03;;
73567;SDS011;61847;54.994;73.310;2022-10-31T01:06:11;20.20;;;8.93;;
73567;SDS011;61847;54.994;73.310;2022-10-31T01:08:38;26.53;;;9.27;;
73567;SDS011;61847;54.994;73.310;2022-10-31T01:11:18;31.57;;;9.13;;
73567;SDS011;61847;54.994;73.310;2022-10-31T01:13:46;29.83;;;9.27;;
73567;SDS011;61847;54.994;73.310;2022-10-31T01:16:16;29.53;;;9.43;;
73567;SDS011;61847;54.994;73.310;2022-10-31T01:18:43;34.00;;;11.10;;
73567;SDS011;61847;54.994;73.310;2022-10-31T01:21:11;48.77;;;11.87;;
73567;SDS011;61847;54.994;73.310;2022-10-31T01:23:40;39.07;;;11.27;;
73567;SDS011;61847;54.994;73.310;2022-10-31T01:26:18;45.90;;;10.77;;
73567;SDS011;61847;54.994;73.310;2022-10-31T01:31:14;63.20;;;11.40;;
73567;SDS011;61847;54.994;73.310;2022-10-31T01:33:42;44.97;;;11.90;;
73567;SDS011;61847;54.994;73.310;2022-10-31T01:36:16;77.17;;;11.90;;
73567;SDS011;61847;54.994;73.310;2022-10-31T01:38:44;89.57;;;11.63;;
73567;SDS011;61847;54.994;73.310;2022-10-31T01:41:11;63.67;;;10.40;;
73567;SDS011;61847;54.994;73.310;2022-10-31T01:43:47;79.13;;;10.63;;
73567;SDS011;61847;54.994;73.310;2022-10-31T01:46:36;73.53;;;11.60;;
73567;SDS011;61847;54.994;73.310;2022-10-31T01:49:06;70.73;;;10.60;;
73567;SDS011;61847;54.994;73.310;2022-10-31T01:51:51;62.47;;;10.33;;
73567;SDS011;61847;54.994;73.310;2022-10-31T01:54:22;95.57;;;12.37;;
73567;SDS011;61847;54.994;73.310;2022-10-31T01:56:54;80.28;;;10.88;;
73567;SDS011;61847;54.994;73.310;2022-10-31T01:59:23;41.70;;;9.30;;
73567;SDS011;61847;54.994;73.310;2022-10-31T02:01:54;72.70;;;14.70;;
73567;SDS011;61847;54.994;73.310;2022-10-31T02:04:20;79.30;;;16.20;;
73567;SDS011;61847;54.994;73.310;2022-10-31T02:06:53;85.60;;;16.40;;
73567;SDS011;61847;54.994;73.310;2022-10-31T02:09:29;117.93;;;18.17;;
73567;SDS011;61847;54.994;73.310;2022-10-31T02:11:57;149.47;;;24.53;;
73567;SDS011;61847;54.994;73.310;2022-10-31T02:14:25;138.77;;;28.97;;
73567;SDS011;61847;54.994;73.310;2022-10-31T02:16:53;134.97;;;29.40;;
73567;SDS011;61847;54.994;73.310;2022-10-31T02:22:27;112.00;;;24.20;;
73567;SDS011;61847;54.994;73.310;2022-10-31T02:34:05;26.73;;;10.60;;
73567;SDS011;61847;54.994;73.310;2022-10-31T02:36:48;38.63;;;9.60;;
73567;SDS011;61847;54.994;73.310;2022-10-31T02:39:37;33.83;;;10.60;;
73567;SDS011;61847;54.994;73.310;2022-10-31T02:42:26;27.83;;;10.60;;
73567;SDS011;61847;54.994;73.310;2022-10-31T02:45:11;30.27;;;11.40;;
73567;SDS011;61847;54.994;73.310;2022-10-31T02:47:38;48.40;;;14.03;;
73567;SDS011;61847;54.994;73.310;2022-10-31T02:50:06;44.03;;;15.23;;
73567;SDS011;61847;54.994;73.310;2022-10-31T02:52:38;42.40;;;13.17;;
73567;SDS011;61847;54.994;73.310;2022-10-31T02:55:09;41.50;;;13.60;;
73567;SDS011;61847;54.994;73.310;2022-10-31T02:57:37;41.15;;;15.18;;
73567;SDS011;61847;54.994;73.310;2022-10-31T03:00:06;42.67;;;15.10;;
73567;SDS011;61847;54.994;73.310;2022-10-31T03:02:50;33.13;;;13.80;;
73567;SDS011;61847;54.994;73.310;2022-10-31T03:08:32;49.17;;;15.17;;
73567;SDS011;61847;54.994;73.310;2022-10-31T03:11:08;41.97;;;13.70;;
73567;SDS011;61847;54.994;73.310;2022-10-31T03:13:47;48.10;;;15.47;;
73567;SDS011;61847;54.994;73.310;2022-10-31T03:19:28;41.63;;;15.83;;
73567;SDS011;61847;54.994;73.310;2022-10-31T03:22:09;43.33;;;17.17;;
73567;SDS011;61847;54.994;73.310;2022-10-31T03:24:45;42.43;;;15.73;;
73567;SDS011;61847;54.994;73.310;2022-10-31T03:27:15;39.27;;;16.27;;
73567;SDS011;61847;54.994;73.310;2022-10-31T03:29:45;50.87;;;16.43;;
73567;SDS011;61847;54.994;73.310;2022-10-31T03:32:20;60.70;;;16.73;;
73567;SDS011;61847;54.994;73.310;2022-10-31T03:34:53;49.58;;;15.18;;
73567;SDS011;61847;54.994;73.310;2022-10-31T03:37:24;51.87;;;16.73;;
73567;SDS011;61847;54.994;73.310;2022-10-31T03:40:05;65.60;;;17.83;;
73567;SDS011;61847;54.994;73.310;2022-10-31T03:42:36;54.27;;;17.33;;
73567;SDS011;61847;54.994;73.310;2022-10-31T03:47:46;65.40;;;17.37;;
73567;SDS011;61847;54.994;73.310;2022-10-31T03:50:14;56.37;;;18.23;;
73567;SDS011;61847;54.994;73.310;2022-10-31T03:52:49;51.57;;;19.90;;
73567;SDS011;61847;54.994;73.310;2022-10-31T03:55:47;72.37;;;20.40;;
73567;SDS011;61847;54.994;73.310;2022-10-31T03:58:19;67.73;;;21.10;;
73567;SDS011;61847;54.994;73.310;2022-10-31T04:00:49;63.03;;;21.03;;
73567;SDS011;61847;54.994;73.310;2022-10-31T04:03:19;66.57;;;21.30;;
73567;SDS011;61847;54.994;73.310;2022-10-31T04:06:06;68.07;;;19.00;;
73567;SDS011;61847;54.994;73.310;2022-10-31T04:08:39;63.37;;;21.30;;
73567;SDS011;61847;54.994;73.310;2022-10-31T04:11:13;69.47;;;21.33;;
73567;SDS011;61847;54.994;73.310;2022-10-31T04:16:19;84.65;;;21.15;;
73567;SDS011;61847;54.994;73.310;2022-10-31T04:18:47;77.07;;;21.40;;
73567;SDS011;61847;54.994;73.310;2022-10-31T04:21:15;68.33;;;21.53;;
73567;SDS011;61847;54.994;73.310;2022-10-31T04:23:47;66.07;;;23.10;;
73567;SDS011;61847;54.994;73.310;2022-10-31T04:26:17;72.27;;;23.60;;
73567;SDS011;61847;54.994;73.310;2022-10-31T04:28:49;83.23;;;26.53;;
73567;SDS011;61847;54.994;73.310;2022-10-31T04:31:15;153.07;;;30.47;;
73567;SDS011;61847;54.994;73.310;2022-10-31T04:33:48;121.78;;;30.13;;
73567;SDS011;61847;54.994;73.310;2022-10-31T04:36:17;120.70;;;34.27;;
73567;SDS011;61847;54.994;73.310;2022-10-31T04:38:44;107.60;;;33.33;;
73567;SDS011;61847;54.994;73.310;2022-10-31T04:41:30;111.03;;;33.03;;
73567;SDS011;61847;54.994;73.310;2022-10-31T04:44:07;125.13;;;34.23;;
73567;SDS011;61847;54.994;73.310;2022-10-31T04:46:33;135.10;;;35.70;;
73567;SDS011;61847;54.994;73.310;2022-10-31T04:49:00;130.50;;;35.40;;
73567;SDS011;61847;54.994;73.310;2022-10-31T04:51:29;131.67;;;37.70;;
73567;SDS011;61847;54.994;73.310;2022-10-31T04:53:56;129.80;;;34.83;;
73567;SDS011;61847;54.994;73.310;2022-10-31T04:56:28;124.27;;;37.00;;
73567;SDS011;61847;54.994;73.310;2022-10-31T04:58:58;110.97;;;36.03;;
73567;SDS011;61847;54.994;73.310;2022-10-31T05:01:27;122.47;;;38.20;;
73567;SDS011;61847;54.994;73.310;2022-10-31T05:03:59;139.80;;;38.77;;
73567;SDS011;61847;54.994;73.310;2022-10-31T05:06:25;133.27;;;38.40;;
73567;SDS011;61847;54.994;73.310;2022-10-31T05:08:52;117.83;;;38.13;;
73567;SDS011;61847;54.994;73.310;2022-10-31T05:11:19;121.30;;;42.20;;
73567;SDS011;61847;54.994;73.310;2022-10-31T05:13:46;139.13;;;40.50;;
73567;SDS011;61847;54.994;73.310;2022-10-31T05:16:12;100.30;;;38.10;;
73567;SDS011;61847;54.994;73.310;2022-10-31T05:19:01;131.33;;;39.20;;
73567;SDS011;61847;54.994;73.310;2022-10-31T05:21:27;145.40;;;42.83;;
73567;SDS011;61847;54.994;73.310;2022-10-31T05:23:58;132.07;;;43.63;;
73567;SDS011;61847;54.994;73.310;2022-10-31T05:26:25;151.00;;;46.03;;
73567;SDS011;61847;54.994;73.310;2022-10-31T05:29:00;140.03;;;44.13;;
73567;SDS011;61847;54.994;73.310;2022-10-31T05:31:27;173.93;;;50.33;;
73567;SDS011;61847;54.994;73.310;2022-10-31T05:33:54;153.80;;;46.83;;
73567;SDS011;61847;54.994;73.310;2022-10-31T05:36:38;165.13;;;48.77;;
73567;SDS011;61847;54.994;73.310;2022-10-31T05:39:25;177.60;;;54.23;;
73567;SDS011;61847;54.994;73.310;2022-10-31T05:42:07;192.13;;;51.80;;
73567;SDS011;61847;54.994;73.310;2022-10-31T05:44:39;168.17;;;53.33;;
73567;SDS011;61847;54.994;73.310;2022-10-31T05:47:24;167.77;;;52.53;;
73567;SDS011;61847;54.994;73.310;2022-10-31T05:50:09;192.33;;;52.27;;
73567;SDS011;61847;54.994;73.310;2022-10-31T05:52:46;152.83;;;49.43;;
73567;SDS011;61847;54.994;73.310;2022-10-31T05:55:24;159.90;;;48.40;;
73567;SDS011;61847;54.994;73.310;2022-10-31T05:58:23;132.50;;;44.17;;
73567;SDS011;61847;54.994;73.310;2022-10-31T06:01:02;119.37;;;40.37;;
73567;SDS011;61847;54.994;73.310;2022-10-31T06:03:28;146.97;;;41.90;;
73567;SDS011;61847;54.994;73.310;2022-10-31T06:05:56;115.63;;;39.10;;
73567;SDS011;61847;54.994;73.310;2022-10-31T06:08:30;116.33;;;38.27;;
73567;SDS011;61847;54.994;73.310;2022-10-31T06:11:01;116.37;;;36.47;;
73567;SDS011;61847;54.994;73.310;2022-10-31T06:13:45;110.83;;;35.87;;
73567;SDS011;61847;54.994;73.310;2022-10-31T06:16:21;108.17;;;32.93;;
73567;SDS011;61847;54.994;73.310;2022-10-31T06:18:47;95.60;;;33.60;;
73567;SDS011;61847;54.994;73.310;2022-10-31T06:21:14;102.97;;;33.27;;
73567;SDS011;61847;54.994;73.310;2022-10-31T06:23:41;75.10;;;24.17;;
73567;SDS011;61847;54.994;73.310;2022-10-31T06:26:39;71.53;;;23.43;;
73567;SDS011;61847;54.994;73.310;2022-10-31T06:29:07;72.70;;;22.80;;
73567;SDS011;61847;54.994;73.310;2022-10-31T06:32:00;80.07;;;21.73;;
73567;SDS011;61847;54.994;73.310;2022-10-31T06:34:38;57.10;;;20.03;;
73567;SDS011;61847;54.994;73.310;2022-10-31T06:37:07;65.03;;;18.03;;
73567;SDS011;61847;54.994;73.310;2022-10-31T06:39:34;48.10;;;17.53;;
73567;SDS011;61847;54.994;73.310;2022-10-31T06:42:06;50.00;;;17.17;;
73567;SDS011;61847;54.994;73.310;2022-10-31T06:44:34;51.67;;;15.17;;
73567;SDS011;61847;54.994;73.310;2022-10-31T06:47:23;44.00;;;15.20;;
73567;SDS011;61847;54.994;73.310;2022-10-31T06:49:50;54.17;;;15.57;;
73567;SDS011;61847;54.994;73.310;2022-10-31T06:52:19;50.93;;;14.43;;
73567;SDS011;61847;54.994;73.310;2022-10-31T06:54:50;64.93;;;16.23;;
73567;SDS011;61847;54.994;73.310;2022-10-31T06:57:17;47.50;;;16.00;;
73567;SDS011;61847;54.994;73.310;2022-10-31T06:59:53;42.87;;;13.70;;
73567;SDS011;61847;54.994;73.310;2022-10-31T07:02:38;35.30;;;15.60;;
73567;SDS011;61847;54.994;73.310;2022-10-31T07:05:05;30.60;;;11.73;;
73567;SDS011;61847;54.994;73.310;2022-10-31T07:07:32;26.80;;;11.07;;
73567;SDS011;61847;54.994;73.310;2022-10-31T07:09:58;24.33;;;9.97;;
73567;SDS011;61847;54.994;73.310;2022-10-31T07:12:44;40.03;;;11.43;;
73567;SDS011;61847;54.994;73.310;2022-10-31T07:15:10;32.90;;;11.13;;
73567;SDS011;61847;54.994;73.310;2022-10-31T07:17:36;33.33;;;11.40;;
73567;SDS011;61847;54.994;73.310;2022-10-31T07:20:03;29.57;;;11.40;;
73567;SDS011;61847;54.994;73.310;2022-10-31T07:22:34;39.07;;;11.73;;
73567;SDS011;61847;54.994;73.310;2022-10-31T07:25:04;31.13;;;11.30;;
73567;SDS011;61847;54.994;73.310;2022-10-31T07:27:49;26.87;;;10.77;;
73567;SDS011;61847;54.994;73.310;2022-10-31T07:30:17;37.07;;;11.13;;
73567;SDS011;61847;54.994;73.310;2022-10-31T07:32:46;26.30;;;11.17;;
73567;SDS011;61847;54.994;73.310;2022-10-31T07:35:17;23.37;;;10.83;;
73567;SDS011;61847;54.994;73.310;2022-10-31T07:37:52;26.17;;;10.60;;
73567;SDS011;61847;54.994;73.310;2022-10-31T07:40:19;34.10;;;11.17;;
73567;SDS011;61847;54.994;73.310;2022-10-31T07:42:51;35.90;;;10.53;;
73567;SDS011;61847;54.994;73.310;2022-10-31T07:45:51;24.77;;;10.20;;
73567;SDS011;61847;54.994;73.310;2022-10-31T07:48:50;28.57;;;10.63;;
73567;SDS011;61847;54.994;73.310;2022-10-31T07:51:54;29.37;;;10.47;;
73567;SDS011;61847;54.994;73.310;2022-10-31T07:54:39;24.90;;;10.63;;
73567;SDS011;61847;54.994;73.310;2022-10-31T07:57:08;34.87;;;11.20;;
73567;SDS011;61847;54.994;73.310;2022-10-31T07:59:34;33.30;;;10.37;;
73567;SDS011;61847;54.994;73.310;2022-10-31T08:02:00;23.83;;;9.60;;
73567;SDS011;61847;54.994;73.310;2022-10-31T08:04:39;25.03;;;10.60;;
73567;SDS011;61847;54.994;73.310;2022-10-31T08:07:24;28.40;;;10.80;;
73567;SDS011;61847;54.994;73.310;2022-10-31T08:10:09;39.70;;;10.77;;
73567;SDS011;61847;54.994;73.310;2022-10-31T08:12:35;28.97;;;13.53;;
73567;SDS011;61847;54.994;73.310;2022-10-31T08:15:05;31.23;;;11.23;;
73567;SDS011;61847;54.994;73.310;2022-10-31T08:17:37;32.90;;;12.60;;
73567;SDS011;61847;54.994;73.310;2022-10-31T08:20:22;27.27;;;10.47;;
73567;SDS011;61847;54.994;73.310;2022-10-31T08:23:08;25.20;;;11.00;;
73567;SDS011;61847;54.994;73.310;2022-10-31T08:25:36;25.13;;;10.57;;
73567;SDS011;61847;54.994;73.310;2022-10-31T08:28:11;34.07;;;12.30;;
73567;SDS011;61847;54.994;73.310;2022-10-31T08:30:41;36.80;;;14.10;;
73567;SDS011;61847;54.994;73.310;2022-10-31T08:33:26;33.07;;;12.93;;
73567;SDS011;61847;54.994;73.310;2022-10-31T08:36:10;50.17;;;13.23;;
73567;SDS011;61847;54.994;73.310;2022-10-31T08:39:06;31.03;;;11.27;;
73567;SDS011;61847;54.994;73.310;2022-10-31T08:41:32;26.53;;;11.00;;
73567;SDS011;61847;54.994;73.310;2022-10-31T08:44:04;25.43;;;10.50;;
73567;SDS011;61847;54.994;73.310;2022-10-31T08:46:32;30.87;;;10.80;;
73567;SDS011;61847;54.994;73.310;2022-10-31T08:48:58;43.30;;;15.53;;
73567;SDS011;61847;54.994;73.310;2022-10-31T08:51:24;30.73;;;11.57;;
73567;SDS011;61847;54.994;73.310;2022-10-31T08:53:58;36.20;;;12.13;;
73567;SDS011;61847;54.994;73.310;2022-10-31T08:56:43;28.83;;;10.63;;
73567;SDS011;61847;54.994;73.310;2022-10-31T08:59:28;28.77;;;10.80;;
73567;SDS011;61847;54.994;73.310;2022-10-31T09:02:27;26.67;;;9.97;;
73567;SDS011;61847;54.994;73.310;2022-10-31T09:04:58;47.47;;;11.13;;
73567;SDS011;61847;54.994;73.310;2022-10-31T09:07:24;27.70;;;9.77;;
73567;SDS011;61847;54.994;73.310;2022-10-31T09:09:52;27.50;;;9.30;;
73567;SDS011;61847;54.994;73.310;2022-10-31T09:12:19;21.80;;;10.70;;
73567;SDS011;61847;54.994;73.310;2022-10-31T09:15:30;27.07;;;11.13;;
73567;SDS011;61847;54.994;73.310;2022-10-31T09:20:53;24.20;;;11.00;;
73567;SDS011;61847;54.994;73.310;2022-10-31T09:23:21;43.20;;;12.73;;
73567;SDS011;61847;54.994;73.310;2022-10-31T09:25:49;40.83;;;12.23;;
73567;SDS011;61847;54.994;73.310;2022-10-31T09:28:43;37.70;;;12.27;;
73567;SDS011;61847;54.994;73.310;2022-10-31T09:31:17;39.37;;;13.30;;
73567;SDS011;61847;54.994;73.310;2022-10-31T09:33:54;27.77;;;10.60;;
73567;SDS011;61847;54.994;73.310;2022-10-31T09:36:36;23.37;;;10.67;;
73567;SDS011;61847;54.994;73.310;2022-10-31T09:39:10;21.97;;;10.83;;
73567;SDS011;61847;54.994;73.310;2022-10-31T09:44:44;32.63;;;11.97;;
73567;SDS011;61847;54.994;73.310;2022-10-31T09:47:46;30.57;;;11.67;;
73567;SDS011;61847;54.994;73.310;2022-10-31T09:51:12;34.13;;;11.87;;
73567;SDS011;61847;54.994;73.310;2022-10-31T09:53:45;21.77;;;10.63;;
73567;SDS011;61847;54.994;73.310;2022-10-31T09:56:21;31.43;;;11.97;;
73567;SDS011;61847;54.994;73.310;2022-10-31T09:58:55;22.57;;;10.63;;
73567;SDS011;61847;54.994;73.310;2022-10-31T10:13:33;53.13;;;12.70;;
73567;SDS011;61847;54.994;73.310;2022-10-31T10:16:24;28.80;;;12.20;;
73567;SDS011;61847;54.994;73.310;2022-10-31T10:21:56;40.33;;;14.50;;
73567;SDS011;61847;54.994;73.310;2022-10-31T10:32:57;46.67;;;14.47;;
73567;SDS011;61847;54.994;73.310;2022-10-31T10:35:44;51.13;;;15.32;;
73567;SDS011;61847;54.994;73.310;2022-10-31T10:40:54;43.13;;;16.63;;
73567;SDS011;61847;54.994;73.310;2022-10-31T10:45:55;74.20;;;18.00;;
73567;SDS011;61847;54.994;73.310;2022-10-31T10:54:20;52.53;;;15.73;;
73567;SDS011;61847;54.994;73.310;2022-10-31T10:57:06;40.33;;;15.53;;
73567;SDS011;61847;54.994;73.310;2022-10-31T11:00:17;48.20;;;17.50;;
73567;SDS011;61847;54.994;73.310;2022-10-31T11:02:54;42.50;;;15.47;;
73567;SDS011;61847;54.994;73.310;2022-10-31T11:05:39;54.60;;;17.17;;
73567;SDS011;61847;54.994;73.310;2022-10-31T11:08:26;48.47;;;14.87;;
73567;SDS011;61847;54.994;73.310;2022-10-31T11:13:27;59.63;;;15.37;;
73567;SDS011;61847;54.994;73.310;2022-10-31T11:16:04;44.97;;;15.33;;
73567;SDS011;61847;54.994;73.310;2022-10-31T11:18:41;69.30;;;15.47;;
73567;SDS011;61847;54.994;73.310;2022-10-31T11:21:23;53.97;;;15.83;;
73567;SDS011;61847;54.994;73.310;2022-10-31T11:26:40;61.13;;;17.70;;
73567;SDS011;61847;54.994;73.310;2022-10-31T11:29:13;67.60;;;18.17;;
73567;SDS011;61847;54.994;73.310;2022-10-31T11:31:47;47.67;;;17.03;;
73567;SDS011;61847;54.994;73.310;2022-10-31T11:34:30;65.90;;;16.17;;
73567;SDS011;61847;54.994;73.310;2022-10-31T11:37:17;47.37;;;15.23;;
73567;SDS011;61847;54.994;73.310;2022-10-31T11:39:50;52.93;;;14.37;;
73567;SDS011;61847;54.994;73.310;2022-10-31T11:42:39;33.97;;;14.13;;
73567;SDS011;61847;54.994;73.310;2022-10-31T11:45:31;68.13;;;15.57;;
73567;SDS011;61847;54.994;73.310;2022-10-31T11:47:59;59.10;;;15.90;;
73567;SDS011;61847;54.994;73.310;2022-10-31T11:53:11;65.03;;;16.73;;
73567;SDS011;61847;54.994;73.310;2022-10-31T11:55:41;56.83;;;15.30;;
73567;SDS011;61847;54.994;73.310;2022-10-31T11:58:24;76.97;;;15.97;;
73567;SDS011;61847;54.994;73.310;2022-10-31T12:00:53;62.10;;;15.70;;
73567;SDS011;61847;54.994;73.310;2022-10-31T12:05:53;42.17;;;15.27;;
73567;SDS011;61847;54.994;73.310;2022-10-31T12:08:21;41.63;;;14.70;;
73567;SDS011;61847;54.994;73.310;2022-10-31T12:11:02;49.03;;;14.90;;
73567;SDS011;61847;54.994;73.310;2022-10-31T12:13:48;49.33;;;14.43;;
73567;SDS011;61847;54.994;73.310;2022-10-31T12:19:35;41.75;;;15.82;;
73567;SDS011;61847;54.994;73.310;2022-10-31T12:22:04;51.93;;;15.27;;
73567;SDS011;61847;54.994;73.310;2022-10-31T12:27:16;46.80;;;13.80;;
73567;SDS011;61847;54.994;73.310;2022-10-31T12:40:53;62.23;;;17.10;;
73567;SDS011;61847;54.994;73.310;2022-10-31T12:46:29;77.87;;;16.93;;
73567;SDS011;61847;54.994;73.310;2022-10-31T12:54:57;49.40;;;16.57;;
73567;SDS011;61847;54.994;73.310;2022-10-31T12:57:37;41.60;;;16.73;;
73567;SDS011;61847;54.994;73.310;2022-10-31T13:00:16;51.87;;;16.67;;
73567;SDS011;61847;54.994;73.310;2022-10-31T13:02:57;64.97;;;15.70;;
73567;SDS011;61847;54.994;73.310;2022-10-31T13:05:27;60.07;;;16.60;;
73567;SDS011;61847;54.994;73.310;2022-10-31T13:10:37;48.73;;;16.47;;
73567;SDS011;61847;54.994;73.310;2022-10-31T13:13:25;54.00;;;17.87;;
73567;SDS011;61847;54.994;73.310;2022-10-31T13:15:57;47.72;;;18.08;;
73567;SDS011;61847;54.994;73.310;2022-10-31T13:18:48;48.20;;;19.83;;
73567;SDS011;61847;54.994;73.310;2022-10-31T13:21:23;57.57;;;18.90;;
73567;SDS011;61847;54.994;73.310;2022-10-31T13:24:03;72.40;;;18.98;;
73567;SDS011;61847;54.994;73.310;2022-10-31T13:26:36;62.43;;;19.93;;
73567;SDS011;61847;54.994;73.310;2022-10-31T13:31:52;58.23;;;20.30;;
73567;SDS011;61847;54.994;73.310;2022-10-31T13:37:57;59.67;;;21.20;;
73567;SDS011;61847;54.994;73.310;2022-10-31T13:42:59;65.63;;;23.23;;
73567;SDS011;61847;54.994;73.310;2022-10-31T13:45:49;67.73;;;23.70;;
73567;SDS011;61847;54.994;73.310;2022-10-31T13:51:06;69.90;;;23.70;;
73567;SDS011;61847;54.994;73.310;2022-10-31T13:53:44;77.33;;;25.23;;
73567;SDS011;61847;54.994;73.310;2022-10-31T13:56:26;73.83;;;24.80;;
73567;SDS011;61847;54.994;73.310;2022-10-31T14:01:37;73.73;;;25.70;;
73567;SDS011;61847;54.994;73.310;2022-10-31T14:04:26;85.03;;;24.93;;
73567;SDS011;61847;54.994;73.310;2022-10-31T14:09:40;91.33;;;26.37;;
73567;SDS011;61847;54.994;73.310;2022-10-31T14:12:43;77.23;;;25.20;;
73567;SDS011;61847;54.994;73.310;2022-10-31T14:17:52;87.03;;;25.47;;
73567;SDS011;61847;54.994;73.310;2022-10-31T14:28:51;93.87;;;25.87;;
73567;SDS011;61847;54.994;73.310;2022-10-31T14:39:24;84.83;;;24.47;;
73567;SDS011;61847;54.994;73.310;2022-10-31T14:52:36;105.37;;;31.33;;
73567;SDS011;61847;54.994;73.310;2022-10-31T14:55:05;106.50;;;32.07;;
73567;SDS011;61847;54.994;73.310;2022-10-31T14:57:37;96.47;;;28.60;;
73567;SDS011;61847;54.994;73.310;2022-10-31T15:00:14;87.40;;;25.67;;
73567;SDS011;61847;54.994;73.310;2022-10-31T15:05:27;68.57;;;22.60;;
73567;SDS011;61847;54.994;73.310;2022-10-31T15:08:00;91.57;;;24.65;;
73567;SDS011;61847;54.994;73.310;2022-10-31T15:10:27;85.27;;;29.50;;
73567;SDS011;61847;54.994;73.310;2022-10-31T15:13:10;67.50;;;24.10;;
73567;SDS011;61847;54.994;73.310;2022-10-31T15:15:44;87.80;;;23.33;;
73567;SDS011;61847;54.994;73.310;2022-10-31T15:18:16;75.63;;;24.43;;
73567;SDS011;61847;54.994;73.310;2022-10-31T15:20:45;71.00;;;21.63;;
73567;SDS011;61847;54.994;73.310;2022-10-31T15:23:15;70.80;;;23.40;;
73567;SDS011;61847;54.994;73.310;2022-10-31T15:25:46;72.43;;;22.13;;
73567;SDS011;61847;54.994;73.310;2022-10-31T15:28:14;64.70;;;22.43;;
73567;SDS011;61847;54.994;73.310;2022-10-31T15:30:57;81.37;;;23.07;;
73567;SDS011;61847;54.994;73.310;2022-10-31T15:33:41;75.73;;;22.97;;
73567;SDS011;61847;54.994;73.310;2022-10-31T15:39:00;70.90;;;21.30;;
73567;SDS011;61847;54.994;73.310;2022-10-31T15:41:52;76.27;;;23.43;;
73567;SDS011;61847;54.994;73.310;2022-10-31T15:44:29;69.87;;;20.53;;
73567;SDS011;61847;54.994;73.310;2022-10-31T15:47:04;75.47;;;22.30;;
73567;SDS011;61847;54.994;73.310;2022-10-31T15:49:42;78.37;;;23.17;;
73567;SDS011;61847;54.994;73.310;2022-10-31T15:55:16;75.67;;;25.73;;
73567;SDS011;61847;54.994;73.310;2022-10-31T15:57:47;63.33;;;21.77;;
73567;SDS011;61847;54.994;73.310;2022-10-31T16:00:33;66.37;;;23.10;;
73567;SDS011;61847;54.994;73.310;2022-10-31T16:05:44;52.73;;;15.37;;
73567;SDS011;61847;54.994;73.310;2022-10-31T16:13:40;65.90;;;20.50;;
73567;SDS011;61847;54.994;73.310;2022-10-31T16:16:22;60.93;;;20.07;;
73567;SDS011;61847;54.994;73.310;2022-10-31T16:19:00;63.70;;;19.40;;
73567;SDS011;61847;54.994;73.310;2022-10-31T16:21:38;62.80;;;20.20;;
73567;SDS011;61847;54.994;73.310;2022-10-31T16:24:13;60.47;;;20.20;;
73567;SDS011;61847;54.994;73.310;2022-10-31T16:27:03;60.27;;;20.40;;
73567;SDS011;61847;54.994;73.310;2022-10-31T16:29:44;58.60;;;20.33;;
73567;SDS011;61847;54.994;73.310;2022-10-31T16:32:27;64.10;;;20.57;;
73567;SDS011;61847;54.994;73.310;2022-10-31T16:37:33;70.40;;;22.00;;
73567;SDS011;61847;54.994;73.310;2022-10-31T16:40:03;66.83;;;21.20;;
73567;SDS011;61847;54.994;73.310;2022-10-31T16:42:30;58.87;;;20.80;;
73567;SDS011;61847;54.994;73.310;2022-10-31T16:44:59;71.53;;;21.57;;
73567;SDS011;61847;54.994;73.310;2022-10-31T16:47:25;56.10;;;20.43;;
73567;SDS011;61847;54.994;73.310;2022-10-31T16:49:52;63.83;;;21.43;;
73567;SDS011;61847;54.994;73.310;2022-10-31T16:52:18;66.10;;;21.60;;
73567;SDS011;61847;54.994;73.310;2022-10-31T16:54:44;57.17;;;19.60;;
73567;SDS011;61847;54.994;73.310;2022-10-31T16:57:23;52.67;;;19.50;;
73567;SDS011;61847;54.994;73.310;2022-10-31T16:59:53;52.03;;;19.33;;
73567;SDS011;61847;54.994;73.310;2022-10-31T17:02:19;62.93;;;20.10;;
73567;SDS011;61847;54.994;73.310;2022-10-31T17:04:46;55.83;;;21.30;;
73567;SDS011;61847;54.994;73.310;2022-10-31T17:07:12;56.60;;;19.40;;
73567;SDS011;61847;54.994;73.310;2022-10-31T17:09:39;53.43;;;20.27;;
73567;SDS011;61847;54.994;73.310;2022-10-31T17:12:05;53.33;;;19.50;;
73567;SDS011;61847;54.994;73.310;2022-10-31T17:14:37;57.07;;;20.30;;
73567;SDS011;61847;54.994;73.310;2022-10-31T17:17:03;65.27;;;21.27;;
73567;SDS011;61847;54.994;73.310;2022-10-31T17:19:35;50.13;;;18.43;;
73567;SDS011;61847;54.994;73.310;2022-10-31T17:22:11;53.07;;;20.40;;
73567;SDS011;61847;54.994;73.310;2022-10-31T17:24:39;61.60;;;18.97;;
73567;SDS011;61847;54.994;73.310;2022-10-31T17:27:15;49.00;;;18.37;;
73567;SDS011;61847;54.994;73.310;2022-10-31T17:29:42;50.27;;;18.57;;
73567;SDS011;61847;54.994;73.310;2022-10-31T17:32:18;48.23;;;17.67;;
73567;SDS011;61847;54.994;73.310;2022-10-31T17:34:44;52.10;;;18.60;;
73567;SDS011;61847;54.994;73.310;2022-10-31T17:37:11;56.53;;;17.90;;
73567;SDS011;61847;54.994;73.310;2022-10-31T17:39:37;42.70;;;17.83;;
73567;SDS011;61847;54.994;73.310;2022-10-31T17:42:03;47.90;;;16.80;;